createdAt,value
2019-04-10T00:00:51.129Z,99.90
2019-04-10T00:03:28.119Z,99.90
2019-04-10T00:05:53.246Z,99.90
2019-04-10T00:08:23.410Z,99.90
2019-04-10T00:10:54.324Z,99.90
2019-04-10T00:13:24.633Z,99.90
2019-04-10T00:15:59.544Z,99.90
2019-04-10T00:18:29.844Z,99.90
2019-04-10T00:21:03.625Z,99.90
2019-04-10T00:23:33.203Z,99.90
2019-04-10T00:26:07.828Z,99.90
2019-04-10T00:28:39.369Z,99.90
2019-04-10T00:31:11.229Z,99.90
2019-04-10T00:33:43.169Z,99.90
2019-04-10T00:36:12.175Z,99.90
2019-04-10T00:38:41.885Z,99.90
2019-04-10T00:41:17.305Z,99.90
2019-04-10T00:43:46.802Z,99.90
2019-04-10T00:46:18.473Z,99.90
2019-04-10T00:48:48.087Z,99.90
2019-04-10T00:51:17.262Z,99.90
2019-04-10T00:53:54.772Z,99.90
2019-04-10T00:56:26.347Z,99.90
2019-04-10T00:58:59.543Z,99.90
2019-04-10T01:01:31.985Z,99.90
2019-04-10T01:04:00.942Z,99.90
2019-04-10T01:06:40.018Z,99.90
2019-04-10T01:09:00.049Z,99.90
2019-04-10T01:11:30.754Z,99.90
2019-04-10T01:14:03.309Z,99.90
2019-04-10T01:16:41.753Z,99.90
2019-04-10T01:19:15.507Z,99.90
2019-04-10T01:21:47.487Z,99.90
2019-04-10T01:24:17.441Z,99.90
2019-04-10T01:26:47.495Z,99.90
2019-04-10T01:29:19.659Z,99.90
2019-04-10T01:31:48.603Z,99.90
2019-04-10T01:34:22.452Z,99.90
2019-04-10T01:36:54.610Z,99.90
2019-04-10T01:39:26.387Z,99.90
2019-04-10T01:41:56.366Z,99.90
2019-04-10T01:44:25.381Z,99.90
2019-04-10T01:46:57.060Z,99.90
2019-04-10T01:49:29.437Z,99.90
2019-04-10T01:52:00.163Z,99.90
2019-04-10T01:54:31.426Z,99.90
2019-04-10T01:57:01.451Z,99.90
2019-04-10T01:59:32.104Z,99.90
2019-04-10T02:02:05.278Z,99.90
2019-04-10T02:04:35.882Z,99.90
2019-04-10T02:07:04.274Z,99.90
2019-04-10T02:09:32.710Z,99.90
2019-04-10T02:12:04.084Z,99.90
2019-04-10T02:14:33.205Z,99.90
2019-04-10T02:17:04.285Z,99.90
2019-04-10T02:19:38.462Z,99.90
2019-04-10T02:22:10.305Z,99.90
2019-04-10T02:24:44.429Z,99.90
2019-04-10T02:27:12.829Z,99.90
2019-04-10T02:29:44.027Z,99.90
2019-04-10T02:32:14.441Z,99.90
2019-04-10T02:34:43.921Z,99.90
2019-04-10T02:37:17.100Z,99.90
2019-04-10T02:39:56.260Z,99.90
2019-04-10T02:42:22.618Z,99.90
2019-04-10T02:44:52.136Z,99.90
2019-04-10T02:47:30.717Z,99.90
2019-04-10T02:50:03.684Z,99.90
2019-04-10T02:52:35.043Z,99.90
2019-04-10T02:55:07.767Z,99.90
2019-04-10T02:57:38.568Z,99.90
2019-04-10T03:00:13.892Z,99.90
2019-04-10T03:02:45.306Z,99.90
2019-04-10T03:05:15.928Z,99.90
2019-04-10T03:07:46.218Z,99.90
2019-04-10T03:10:27.687Z,99.90
2019-04-10T03:12:54.436Z,99.90
2019-04-10T03:15:27.459Z,99.90
2019-04-10T03:17:58.674Z,99.90
2019-04-10T03:20:34.251Z,99.90
2019-04-10T03:23:03.185Z,99.90
2019-04-10T03:25:33.001Z,99.90
2019-04-10T03:28:05.157Z,99.90
2019-04-10T03:30:41.489Z,99.90
2019-04-10T03:33:19.024Z,99.90
2019-04-10T03:35:53.405Z,99.90
2019-04-10T03:38:22.047Z,99.90
2019-04-10T03:40:52.148Z,99.90
2019-04-10T03:43:32.101Z,99.90
2019-04-10T03:46:01.292Z,99.90
2019-04-10T03:48:33.464Z,99.90
2019-04-10T03:51:04.006Z,99.90
2019-04-10T03:53:34.005Z,99.90
2019-04-10T03:56:03.430Z,99.90
2019-04-10T03:58:31.834Z,99.90
2019-04-10T04:01:06.837Z,99.90
2019-04-10T04:03:40.540Z,99.90
2019-04-10T04:06:15.762Z,99.90
2019-04-10T04:08:51.528Z,99.90
2019-04-10T04:11:21.733Z,99.90
2019-04-10T04:13:52.096Z,99.90
2019-04-10T04:16:26.781Z,99.90
2019-04-10T04:18:59.746Z,99.90
2019-04-10T04:21:32.046Z,99.90
2019-04-10T04:24:01.440Z,99.90
2019-04-10T04:26:30.031Z,99.90
2019-04-10T04:28:58.413Z,99.90
2019-04-10T04:31:27.107Z,99.90
2019-04-10T04:33:57.701Z,99.90
2019-04-10T04:36:29.477Z,99.90
2019-04-10T04:38:57.878Z,99.90
2019-04-10T04:41:27.201Z,99.90
2019-04-10T04:44:00.246Z,99.90
2019-04-10T04:46:30.315Z,99.90
2019-04-10T04:49:21.097Z,99.90
2019-04-10T04:52:02.508Z,99.90
2019-04-10T04:54:35.409Z,99.90
2019-04-10T04:57:08.613Z,99.90
2019-04-10T04:59:39.166Z,99.90
2019-04-10T05:02:10.104Z,99.90
2019-04-10T05:04:45.839Z,99.90
2019-04-10T05:07:22.510Z,99.90
2019-04-10T05:09:52.200Z,99.90
2019-04-10T05:12:23.878Z,99.90
2019-04-10T05:14:52.261Z,99.90
2019-04-10T05:17:22.323Z,99.90
2019-04-10T05:19:52.370Z,99.90
2019-04-10T05:22:22.294Z,99.90
2019-04-10T05:24:55.211Z,99.90
2019-04-10T05:27:26.648Z,99.90
2019-04-10T05:29:55.657Z,99.90
2019-04-10T05:32:25.473Z,99.90
2019-04-10T05:34:56.148Z,99.90
2019-04-10T05:37:40.111Z,99.90
2019-04-10T05:40:09.895Z,99.90
2019-04-10T05:42:41.648Z,99.90
2019-04-10T05:45:34.375Z,99.90
2019-04-10T05:48:06.806Z,99.90
2019-04-10T05:50:36.036Z,99.90
2019-04-10T05:53:04.442Z,99.90
2019-04-10T05:55:33.113Z,99.90
2019-04-10T05:58:05.028Z,99.90
2019-04-10T06:00:36.845Z,99.90
2019-04-10T06:03:06.166Z,99.90
2019-04-10T06:05:35.383Z,99.90
2019-04-10T06:08:03.780Z,99.90
2019-04-10T06:10:32.599Z,99.90
2019-04-10T06:13:03.923Z,99.90
2019-04-10T06:15:39.169Z,99.90
2019-04-10T06:18:09.060Z,99.90
2019-04-10T06:20:41.776Z,99.90
2019-04-10T06:23:15.063Z,99.90
2019-04-10T06:25:43.308Z,99.90
2019-04-10T06:28:14.922Z,99.90
2019-04-10T06:30:43.929Z,99.90
2019-04-10T06:33:12.389Z,99.90
2019-04-10T06:35:44.680Z,99.90
2019-04-10T06:38:18.897Z,99.90
2019-04-10T06:40:48.163Z,99.90
2019-04-10T06:43:19.071Z,99.90
2019-04-10T06:45:50.353Z,99.90
2019-04-10T06:48:19.262Z,99.90
2019-04-10T06:50:49.050Z,99.90
2019-04-10T06:53:20.569Z,99.90
2019-04-10T06:55:52.319Z,99.90
2019-04-10T06:58:31.945Z,99.90
2019-04-10T07:00:56.184Z,99.90
2019-04-10T07:03:38.071Z,99.90
2019-04-10T07:06:06.445Z,99.90
2019-04-10T07:08:27.527Z,99.90
2019-04-10T07:11:05.220Z,99.90
2019-04-10T07:13:32.137Z,99.90
2019-04-10T07:16:02.120Z,99.90
2019-04-10T07:18:31.206Z,99.90
2019-04-10T07:21:01.608Z,99.90
2019-04-10T07:23:36.669Z,99.90
2019-04-10T07:26:07.021Z,99.90
2019-04-10T07:28:37.830Z,99.90
2019-04-10T07:31:08.192Z,99.90
2019-04-10T07:33:37.076Z,99.90
2019-04-10T07:36:11.390Z,99.90
2019-04-10T07:38:39.337Z,99.90
2019-04-10T07:41:15.434Z,99.90
2019-04-10T07:43:38.691Z,99.90
2019-04-10T07:46:07.914Z,99.90
2019-04-10T07:48:41.414Z,99.90
2019-04-10T07:51:11.227Z,99.90
2019-04-10T07:53:43.578Z,99.90
2019-04-10T07:56:16.249Z,99.90
2019-04-10T07:58:43.944Z,99.90
2019-04-10T08:01:13.865Z,99.90
2019-04-10T08:03:43.839Z,99.90
2019-04-10T08:06:15.340Z,99.90
2019-04-10T08:08:47.128Z,99.90
2019-04-10T08:11:19.662Z,99.90
2019-04-10T08:13:51.146Z,99.90
2019-04-10T08:16:21.056Z,99.90
2019-04-10T08:18:52.703Z,99.90
2019-04-10T08:21:21.839Z,99.90
2019-04-10T08:23:54.892Z,99.90
2019-04-10T08:26:25.502Z,99.90
2019-04-10T08:28:53.901Z,99.90
2019-04-10T08:31:25.353Z,99.90
2019-04-10T08:33:59.008Z,99.90
2019-04-10T08:36:27.688Z,99.90
2019-04-10T08:39:00.700Z,99.90
2019-04-10T08:41:35.127Z,99.90
2019-04-10T08:44:04.495Z,99.90
2019-04-10T08:46:36.175Z,99.90
2019-04-10T08:49:07.826Z,99.90
2019-04-10T08:51:39.499Z,99.90
2019-04-10T08:54:14.573Z,99.90
2019-04-10T08:56:42.972Z,99.90
2019-04-10T08:59:11.769Z,99.90
2019-04-10T09:01:42.404Z,99.90
2019-04-10T09:04:31.191Z,99.90
2019-04-10T09:06:56.517Z,99.90
2019-04-10T09:09:29.900Z,99.90
2019-04-10T09:12:01.843Z,99.90
2019-04-10T09:14:30.824Z,99.90
2019-04-10T09:17:02.814Z,99.90
2019-04-10T09:19:34.533Z,99.90
2019-04-10T09:22:06.061Z,99.90
2019-04-10T09:24:34.452Z,99.90
2019-04-10T09:27:02.870Z,99.90
2019-04-10T09:29:32.014Z,99.90
2019-04-10T09:32:04.372Z,99.90
2019-04-10T09:34:36.106Z,99.90
2019-04-10T09:37:06.163Z,99.90
2019-04-10T09:39:35.949Z,99.90
2019-04-10T09:42:06.717Z,99.90
2019-04-10T09:44:38.036Z,99.90
2019-04-10T09:47:07.749Z,99.90
2019-04-10T09:49:42.817Z,99.90
2019-04-10T09:52:07.589Z,99.90
2019-04-10T09:54:35.992Z,99.90
2019-04-10T09:57:07.058Z,99.90
2019-04-10T09:59:40.858Z,99.90
2019-04-10T10:02:09.248Z,99.90
2019-04-10T10:04:41.752Z,99.90
2019-04-10T10:07:12.455Z,99.90
2019-04-10T10:09:45.154Z,99.90
2019-04-10T10:12:14.173Z,99.90
2019-04-10T10:14:46.870Z,99.90
2019-04-10T10:17:16.977Z,99.90
2019-04-10T10:19:48.357Z,99.90
2019-04-10T10:22:18.659Z,99.90
2019-04-10T10:24:47.041Z,99.90
2019-04-10T10:27:18.393Z,99.90
2019-04-10T10:29:53.433Z,99.90
2019-04-10T10:32:26.687Z,99.90
2019-04-10T10:34:59.079Z,99.90
2019-04-10T10:37:33.324Z,99.90
2019-04-10T10:40:01.884Z,99.90
2019-04-10T10:42:30.421Z,99.90
2019-04-10T10:44:58.814Z,99.90
2019-04-10T10:47:29.058Z,99.90
2019-04-10T10:49:57.444Z,99.90
2019-04-10T10:52:25.831Z,99.90
2019-04-10T10:54:55.506Z,99.90
2019-04-10T10:57:24.849Z,99.90
2019-04-10T10:59:59.938Z,99.90
2019-04-10T11:02:33.784Z,99.90
2019-04-10T11:05:06.881Z,99.90
2019-04-10T11:07:36.669Z,99.90
2019-04-10T11:10:10.741Z,99.90
2019-04-10T11:12:46.561Z,99.90
2019-04-10T11:15:18.514Z,99.90
2019-04-10T11:17:48.215Z,99.90
2019-04-10T11:20:19.804Z,99.90
2019-04-10T11:22:49.617Z,99.90
2019-04-10T11:25:22.128Z,99.90
2019-04-10T11:27:53.966Z,99.90
2019-04-10T11:30:24.915Z,99.90
2019-04-10T11:32:54.924Z,99.90
2019-04-10T11:35:26.673Z,99.90
2019-04-10T11:37:59.075Z,99.90
2019-04-10T11:40:28.039Z,99.90
2019-04-10T11:43:04.702Z,99.90
2019-04-10T11:45:40.700Z,99.90
2019-04-10T11:48:02.681Z,99.90
2019-04-10T11:50:34.849Z,99.90
2019-04-10T11:53:07.044Z,99.90
2019-04-10T11:55:43.666Z,99.90
2019-04-10T11:58:10.698Z,99.90
2019-04-10T12:03:15.239Z,99.90
2019-04-10T12:05:51.806Z,99.90
2019-04-10T12:08:46.388Z,99.90
2019-04-10T12:11:10.913Z,99.90
2019-04-10T12:13:21.980Z,99.90
2019-04-10T12:15:53.769Z,99.90
2019-04-10T12:18:24.694Z,99.90
2019-04-10T12:21:01.808Z,99.90
2019-04-10T12:23:27.217Z,99.90
2019-04-10T12:25:56.197Z,99.90
2019-04-10T12:28:27.645Z,99.90
2019-04-10T12:30:57.818Z,99.90
2019-04-10T12:33:27.396Z,99.90
2019-04-10T12:35:58.994Z,99.90
2019-04-10T12:38:27.733Z,99.90
2019-04-10T12:40:57.238Z,99.90
2019-04-10T12:43:27.241Z,99.90
2019-04-10T12:45:56.856Z,99.90
2019-04-10T12:48:26.336Z,99.90
2019-04-10T12:50:58.154Z,99.90
2019-04-10T12:53:29.440Z,99.90
2019-04-10T12:56:00.137Z,99.50
2019-04-10T12:58:28.908Z,98.40
2019-04-10T13:00:59.039Z,99.00
2019-04-10T13:03:31.343Z,98.50
2019-04-10T13:06:02.953Z,98.20
2019-04-10T13:08:51.460Z,98.60
2019-04-10T13:11:06.290Z,98.40
2019-04-10T13:13:35.758Z,98.50
2019-04-10T13:16:08.207Z,97.70
2019-04-10T13:18:40.608Z,97.30
2019-04-10T13:21:15.084Z,96.70
2019-04-10T13:23:44.759Z,97.10
2019-04-10T13:26:15.617Z,97.00
2019-04-10T13:28:47.709Z,97.40
2019-04-10T13:31:17.179Z,97.00
2019-04-10T13:33:48.995Z,97.90
2019-04-10T13:36:18.036Z,96.50
2019-04-10T13:38:46.515Z,96.50
2019-04-10T13:41:16.541Z,96.10
2019-04-10T13:43:45.074Z,95.50
2019-04-10T13:46:13.497Z,95.00
2019-04-10T13:48:43.521Z,96.10
2019-04-10T13:51:13.139Z,94.00
2019-04-10T13:53:42.016Z,95.70
2019-04-10T13:56:13.081Z,94.10
2019-04-10T13:58:45.240Z,94.40
2019-04-10T14:01:15.464Z,94.60
2019-04-10T14:03:47.628Z,93.80
2019-04-10T14:06:17.139Z,94.20
2019-04-10T14:09:07.931Z,93.90
2019-04-10T14:11:22.465Z,94.10
2019-04-10T14:13:52.532Z,93.60
2019-04-10T14:16:24.472Z,92.30
2019-04-10T14:19:03.797Z,92.10
2019-04-10T14:21:29.846Z,92.50
2019-04-10T14:24:04.886Z,91.90
2019-04-10T14:26:48.797Z,92.70
2019-04-10T14:29:18.485Z,91.50
2019-04-10T14:31:58.696Z,91.40
2019-04-10T14:34:28.381Z,90.70
2019-04-10T14:37:01.109Z,90.20
2019-04-10T14:39:31.557Z,88.70
2019-04-10T14:42:00.632Z,89.20
2019-04-10T14:44:29.020Z,89.90
2019-04-10T14:46:58.035Z,90.30
2019-04-10T14:49:27.218Z,90.70
2019-04-10T14:51:59.645Z,90.90
2019-04-10T14:54:32.569Z,90.30
2019-04-10T14:57:02.378Z,90.80
2019-04-10T14:59:31.799Z,90.90
2019-04-10T15:02:06.309Z,91.70
2019-04-10T15:04:39.812Z,90.30
2019-04-10T15:07:12.171Z,90.80
2019-04-10T15:09:41.281Z,90.70
2019-04-10T15:12:15.092Z,91.00
2019-04-10T15:14:44.255Z,91.00
2019-04-10T15:17:16.791Z,91.50
2019-04-10T15:19:49.795Z,91.40
2019-04-10T15:22:20.256Z,92.10
2019-04-10T15:24:51.916Z,92.10
2019-04-10T15:27:21.576Z,91.80
2019-04-10T15:29:55.433Z,91.00
2019-04-10T15:32:26.768Z,90.50
2019-04-10T15:34:55.803Z,90.60
2019-04-10T15:37:25.978Z,90.30
2019-04-10T15:39:56.257Z,90.80
2019-04-10T15:42:24.825Z,90.70
2019-04-10T15:44:58.737Z,90.80
2019-04-10T15:47:33.453Z,90.50
2019-04-10T15:50:04.133Z,90.50
2019-04-10T15:52:35.225Z,91.30
2019-04-10T15:55:06.409Z,91.10
2019-04-10T15:57:46.921Z,91.60
2019-04-10T16:00:08.672Z,91.70
2019-04-10T16:02:37.077Z,90.70
2019-04-10T16:05:07.766Z,90.10
2019-04-10T16:07:38.879Z,89.40
2019-04-10T16:10:28.884Z,88.10
2019-04-10T16:13:02.604Z,88.50
2019-04-10T16:15:36.749Z,86.90
2019-04-10T16:18:12.110Z,87.90
2019-04-10T16:20:43.222Z,87.80
2019-04-10T16:23:14.309Z,88.00
2019-04-10T16:25:47.706Z,88.20
2019-04-10T16:28:20.812Z,88.60
2019-04-10T16:30:50.767Z,88.00
2019-04-10T16:33:23.236Z,87.70
2019-04-10T16:35:56.899Z,88.10
2019-04-10T16:38:29.137Z,85.80
2019-04-10T16:40:58.379Z,85.90
2019-04-10T16:43:30.730Z,87.00
2019-04-10T16:46:07.152Z,87.00
2019-04-10T16:48:35.949Z,87.30
2019-04-10T16:51:05.971Z,87.40
2019-04-10T16:53:34.334Z,86.70
2019-04-10T16:56:02.733Z,86.90
2019-04-10T16:58:41.122Z,87.30
2019-04-10T17:01:12.646Z,87.10
2019-04-10T17:03:46.326Z,87.40
2019-04-10T17:06:16.059Z,87.60
2019-04-10T17:08:45.961Z,88.40
2019-04-10T17:11:17.392Z,87.90
2019-04-10T17:13:46.704Z,88.70
2019-04-10T17:16:19.811Z,88.40
2019-04-10T17:18:51.969Z,88.90
2019-04-10T17:21:21.456Z,89.50
2019-04-10T17:23:58.794Z,90.00
2019-04-10T17:26:32.881Z,90.40
2019-04-10T17:29:03.476Z,91.10
2019-04-10T17:31:32.911Z,91.10
2019-04-10T17:34:02.777Z,91.60
2019-04-10T17:36:35.227Z,91.80
2019-04-10T17:39:07.457Z,91.90
2019-04-10T17:41:39.636Z,92.00
2019-04-10T17:44:09.636Z,92.70
2019-04-10T17:46:39.503Z,92.30
2019-04-10T17:49:09.100Z,92.90
2019-04-10T17:51:38.702Z,92.90
2019-04-10T17:54:11.846Z,93.40
2019-04-10T17:56:42.560Z,93.20
2019-04-10T17:59:14.735Z,93.40
2019-04-10T18:01:45.177Z,93.50
2019-04-10T18:04:16.072Z,93.90
2019-04-10T18:06:51.954Z,94.20
2019-04-10T18:09:24.222Z,95.00
2019-04-10T18:11:52.682Z,95.70
2019-04-10T18:14:27.071Z,95.60
2019-04-10T18:16:55.460Z,95.80
2019-04-10T18:19:23.866Z,96.00
2019-04-10T18:21:52.242Z,96.40
2019-04-10T18:24:21.899Z,96.20
2019-04-10T18:26:53.409Z,96.60
2019-04-10T18:29:21.711Z,96.80
2019-04-10T18:31:53.549Z,96.80
2019-04-10T18:34:25.440Z,97.00
2019-04-10T18:36:59.497Z,97.30
2019-04-10T18:39:34.591Z,97.70
2019-04-10T18:42:07.970Z,97.90
2019-04-10T18:44:35.333Z,98.00
2019-04-10T18:47:06.909Z,98.00
2019-04-10T18:49:35.761Z,97.90
2019-04-10T18:52:05.362Z,98.00
2019-04-10T18:54:35.991Z,98.20
2019-04-10T18:57:07.405Z,98.30
2019-04-10T18:59:42.774Z,98.40
2019-04-10T19:02:15.846Z,98.50
2019-04-10T19:04:57.199Z,98.80
2019-04-10T19:07:26.128Z,99.00
2019-04-10T19:09:56.946Z,99.50
2019-04-10T19:12:28.673Z,99.70
2019-04-10T19:15:15.185Z,99.90
2019-04-10T19:17:35.130Z,99.90
2019-04-10T19:20:08.906Z,99.90
2019-04-10T19:22:38.434Z,99.90
2019-04-10T19:25:11.460Z,99.90
2019-04-10T19:27:40.245Z,99.90
2019-04-10T19:30:15.374Z,99.90
2019-04-10T19:32:49.918Z,99.90
2019-04-10T19:35:21.622Z,99.90
2019-04-10T19:37:51.287Z,99.90
2019-04-10T19:40:21.213Z,99.90
2019-04-10T19:42:51.503Z,99.90
2019-04-10T19:45:20.688Z,99.90
2019-04-10T19:47:49.074Z,99.90
2019-04-10T19:50:17.481Z,99.90
2019-04-10T19:52:48.775Z,99.90
2019-04-10T19:55:21.967Z,99.90
2019-04-10T19:57:55.421Z,99.90
2019-04-10T20:00:33.201Z,99.90
2019-04-10T20:03:01.645Z,99.90
2019-04-10T20:05:31.613Z,99.90
2019-04-10T20:08:01.461Z,99.90
2019-04-10T20:10:35.110Z,99.90
2019-04-10T20:13:08.937Z,99.90
2019-04-10T20:15:38.494Z,99.90
2019-04-10T20:18:10.722Z,99.90
2019-04-10T20:20:39.489Z,99.90
2019-04-10T20:23:09.780Z,99.90
2019-04-10T20:25:38.838Z,99.90
2019-04-10T20:28:10.018Z,99.90
2019-04-10T20:30:38.419Z,99.90
2019-04-10T20:33:08.436Z,99.90
2019-04-10T20:35:44.674Z,99.90
2019-04-10T20:38:13.483Z,99.90
2019-04-10T20:40:46.900Z,99.90
2019-04-10T20:43:21.089Z,99.90
2019-04-10T20:45:53.921Z,99.90
2019-04-10T20:48:25.219Z,99.90
2019-04-10T20:50:54.368Z,99.90
2019-04-10T20:53:28.251Z,99.90
2019-04-10T20:55:57.800Z,99.90
2019-04-10T20:58:28.175Z,99.90
2019-04-10T21:01:06.697Z,99.90
2019-04-10T21:03:30.271Z,99.90
2019-04-10T21:06:00.737Z,99.90
2019-04-10T21:08:36.329Z,99.90
2019-04-10T21:11:05.745Z,99.90
2019-04-10T21:13:36.842Z,99.90
2019-04-10T21:16:11.349Z,99.90
2019-04-10T21:18:44.198Z,99.90
2019-04-10T21:21:14.424Z,99.90
2019-04-10T21:23:44.925Z,99.90
2019-04-10T21:26:14.262Z,99.90
2019-04-10T21:28:43.730Z,99.90
2019-04-10T21:31:30.185Z,99.90
2019-04-10T21:34:15.206Z,99.90
2019-04-10T21:36:45.505Z,99.90
2019-04-10T21:39:17.142Z,99.90
2019-04-10T21:41:49.875Z,99.90
2019-04-10T21:44:21.355Z,99.90
2019-04-10T21:46:53.034Z,99.90
2019-04-10T21:49:22.018Z,99.90
2019-04-10T21:51:51.543Z,99.90
2019-04-10T21:54:29.653Z,99.90
2019-04-10T21:56:59.815Z,99.90
2019-04-10T21:59:31.002Z,99.90
2019-04-10T22:02:00.061Z,99.90
2019-04-10T22:04:36.043Z,99.90
2019-04-10T22:07:23.837Z,99.90
2019-04-10T22:09:57.242Z,99.90
2019-04-10T22:12:31.637Z,99.90
2019-04-10T22:14:56.358Z,99.90
2019-04-10T22:17:27.509Z,99.90
2019-04-10T22:19:59.137Z,99.90
2019-04-10T22:22:31.148Z,99.90
2019-04-10T22:25:03.687Z,99.90
2019-04-10T22:27:32.061Z,99.90
2019-04-10T22:30:14.981Z,99.90
2019-04-10T22:32:43.915Z,99.90
2019-04-10T22:35:15.249Z,99.90
2019-04-10T22:37:46.627Z,99.90
2019-04-10T22:40:17.337Z,99.90
2019-04-10T22:42:55.436Z,99.90
2019-04-10T22:45:32.666Z,99.90
2019-04-10T22:48:04.237Z,99.90
2019-04-10T22:50:38.426Z,99.90
2019-04-10T22:53:09.122Z,99.90
2019-04-10T22:55:37.501Z,99.90
2019-04-10T22:58:12.813Z,99.90
2019-04-10T23:00:41.844Z,99.90
2019-04-10T23:03:11.384Z,99.90
2019-04-10T23:05:43.048Z,99.90
2019-04-10T23:08:11.576Z,99.90
2019-04-10T23:10:41.306Z,99.90
2019-04-10T23:13:16.088Z,99.90
2019-04-10T23:15:45.681Z,99.90
2019-04-10T23:18:15.371Z,99.90
2019-04-10T23:20:43.995Z,99.90
2019-04-10T23:23:17.301Z,99.90
2019-04-10T23:25:42.846Z,99.90
2019-04-10T23:28:15.604Z,99.90
2019-04-10T23:30:45.903Z,99.90
2019-04-10T23:33:17.601Z,99.90
2019-04-10T23:35:53.813Z,99.90
2019-04-10T23:38:26.396Z,99.90
2019-04-10T23:40:55.046Z,99.90
2019-04-10T23:43:24.250Z,99.90
2019-04-10T23:45:53.988Z,99.90
2019-04-10T23:48:22.523Z,99.90
2019-04-10T23:50:51.565Z,99.90
2019-04-10T23:53:20.487Z,99.90
2019-04-10T23:55:50.336Z,99.90
2019-04-10T23:58:22.112Z,99.90
